National Weather Service Raw Text Product

Displaying AFOS PIL: TAFALO Received: 2018-01-12 11:32 UTC


462 
FTUS43 KDMX 121132
TAFALO
TAF
KALO 121132Z 1212/1312 34013KT P6SM SKC
     FM130300 35009KT P6SM BKN090=